createdAt,value
2017-11-05T00:01:45.169Z,9.48
2017-11-05T00:02:45.145Z,9.56
2017-11-05T00:04:38.586Z,9.38
2017-11-05T00:05:38.674Z,9.39
2017-11-05T00:07:31.993Z,9.35
2017-11-05T00:08:31.982Z,9.35
2017-11-05T00:10:25.314Z,9.45
2017-11-05T00:11:25.346Z,9.46
2017-11-05T00:13:18.795Z,9.50
2017-11-05T00:14:18.750Z,9.56
2017-11-05T00:16:12.060Z,9.56
2017-11-05T00:17:12.315Z,9.46
2017-11-05T00:19:05.501Z,9.53
2017-11-05T00:20:05.559Z,9.50
2017-11-05T00:21:58.661Z,9.45
2017-11-05T00:22:58.607Z,9.46
2017-11-05T00:24:53.039Z,9.49
2017-11-05T00:25:53.046Z,9.38
2017-11-05T00:27:46.332Z,9.40
2017-11-05T00:28:46.382Z,9.39
2017-11-05T00:30:39.806Z,9.35
2017-11-05T00:31:39.773Z,9.45
2017-11-05T00:33:33.214Z,9.39
2017-11-05T00:34:33.274Z,9.27
2017-11-05T00:36:27.691Z,9.24
2017-11-05T00:37:27.611Z,9.09
2017-11-05T00:39:21.102Z,9.16
2017-11-05T00:40:21.017Z,9.05
2017-11-05T00:42:22.481Z,8.96
2017-11-05T00:43:14.392Z,8.83
2017-11-05T00:45:07.831Z,8.81
2017-11-05T00:46:07.777Z,8.76
2017-11-05T00:48:01.114Z,8.65
2017-11-05T00:49:01.197Z,8.65
2017-11-05T00:50:54.660Z,8.55
2017-11-05T00:51:54.582Z,8.57
2017-11-05T00:53:48.045Z,8.57
2017-11-05T00:54:47.958Z,8.60
2017-11-05T00:56:42.412Z,8.60
2017-11-05T00:57:42.436Z,8.48
2017-11-05T00:59:36.753Z,8.60
2017-11-05T01:00:36.886Z,8.58
2017-11-05T01:02:30.168Z,8.55
2017-11-05T01:03:30.299Z,8.62
2017-11-05T01:05:23.617Z,8.55
2017-11-05T01:06:23.608Z,8.60
2017-11-05T01:08:17.034Z,8.47
2017-11-05T01:09:17.168Z,8.35
2017-11-05T01:11:11.421Z,8.35
2017-11-05T01:12:11.483Z,8.25
2017-11-05T01:14:04.731Z,8.18
2017-11-05T01:15:04.765Z,8.14
2017-11-05T01:16:59.147Z,8.04
2017-11-05T01:17:59.184Z,7.99
2017-11-05T01:19:53.541Z,8.03
2017-11-05T01:20:53.627Z,7.97
2017-11-05T01:22:47.037Z,8.14
2017-11-05T01:23:46.950Z,8.02
2017-11-05T01:25:40.402Z,8.00
2017-11-05T01:26:40.326Z,7.93
2017-11-05T01:28:33.698Z,7.92
2017-11-05T01:29:33.737Z,7.84
2017-11-05T01:31:27.104Z,7.89
2017-11-05T01:32:27.138Z,7.93
2017-11-05T01:34:20.465Z,8.02
2017-11-05T01:35:20.568Z,8.00
2017-11-05T01:37:13.983Z,8.03
2017-11-05T01:38:13.968Z,7.99
2017-11-05T01:40:15.911Z,8.00
2017-11-05T01:41:08.484Z,8.02
2017-11-05T01:43:01.697Z,8.07
2017-11-05T01:44:01.757Z,8.00
2017-11-05T01:45:55.122Z,8.02
2017-11-05T01:46:55.112Z,7.92
2017-11-05T01:48:48.499Z,8.08
2017-11-05T01:49:48.492Z,8.03
2017-11-05T01:51:41.907Z,8.02
2017-11-05T01:52:41.909Z,8.03
2017-11-05T01:54:35.311Z,8.02
2017-11-05T01:55:35.290Z,8.04
2017-11-05T01:57:28.627Z,8.14
2017-11-05T01:58:28.692Z,8.11
2017-11-05T02:00:22.053Z,8.14
2017-11-05T02:01:22.075Z,8.20
2017-11-05T02:03:15.421Z,8.26
2017-11-05T02:04:15.455Z,8.18
2017-11-05T02:06:08.799Z,8.22
2017-11-05T02:07:08.825Z,8.20
2017-11-05T02:09:02.164Z,8.00
2017-11-05T02:10:02.272Z,8.07
2017-11-05T02:11:55.703Z,8.00
2017-11-05T02:12:55.657Z,7.85
2017-11-05T02:14:50.038Z,7.82
2017-11-05T02:15:50.151Z,7.85
2017-11-05T02:17:43.429Z,7.89
2017-11-05T02:18:43.419Z,7.77
2017-11-05T02:20:36.832Z,7.79
2017-11-05T02:21:36.836Z,7.72
2017-11-05T02:23:31.215Z,7.74
2017-11-05T02:24:31.192Z,7.69
2017-11-05T02:26:24.634Z,7.62
2017-11-05T02:27:24.657Z,7.63
2017-11-05T02:29:17.998Z,7.60
2017-11-05T02:30:18.026Z,7.56
2017-11-05T02:32:11.540Z,7.62
2017-11-05T02:33:11.429Z,7.56
2017-11-05T02:35:04.874Z,7.60
2017-11-05T02:36:04.825Z,7.53
2017-11-05T02:37:58.227Z,7.59
2017-11-05T02:38:58.168Z,7.58
2017-11-05T02:40:51.623Z,7.50
2017-11-05T02:41:51.622Z,7.45
2017-11-05T02:43:45.013Z,7.58
2017-11-05T02:44:44.980Z,7.52
2017-11-05T02:46:38.356Z,7.52
2017-11-05T02:47:38.435Z,7.45
2017-11-05T02:49:31.745Z,7.47
2017-11-05T02:50:31.833Z,7.50
2017-11-05T02:52:25.171Z,7.55
2017-11-05T02:53:25.156Z,7.49
2017-11-05T02:55:19.532Z,7.41
2017-11-05T02:56:19.548Z,7.35
2017-11-05T02:58:13.922Z,7.45
2017-11-05T02:59:13.979Z,7.44
2017-11-05T03:01:07.307Z,7.45
2017-11-05T03:02:07.404Z,7.41
2017-11-05T03:04:00.725Z,7.42
2017-11-05T03:05:00.747Z,7.31
2017-11-05T03:06:54.120Z,7.32
2017-11-05T03:07:54.109Z,7.23
2017-11-05T03:09:47.558Z,7.20
2017-11-05T03:10:47.569Z,7.19
2017-11-05T03:12:40.928Z,7.24
2017-11-05T03:13:40.927Z,7.22
2017-11-05T03:15:34.324Z,7.23
2017-11-05T03:16:34.318Z,7.12
2017-11-05T03:18:27.772Z,7.23
2017-11-05T03:19:27.764Z,7.23
2017-11-05T03:21:22.157Z,7.22
2017-11-05T03:22:22.235Z,7.34
2017-11-05T03:24:15.540Z,7.44
2017-11-05T03:25:15.518Z,7.47
2017-11-05T03:27:09.916Z,7.53
2017-11-05T03:28:09.954Z,7.53
2017-11-05T03:30:03.347Z,7.59
2017-11-05T03:31:03.380Z,7.60
2017-11-05T03:32:56.746Z,7.69
2017-11-05T03:33:56.767Z,7.69
2017-11-05T03:35:50.423Z,7.78
2017-11-05T03:36:50.161Z,7.67
2017-11-05T03:38:44.505Z,7.79
2017-11-05T03:39:44.543Z,7.79
2017-11-05T03:41:37.917Z,7.78
2017-11-05T03:42:37.874Z,7.77
2017-11-05T03:44:31.332Z,7.72
2017-11-05T03:45:31.314Z,7.79
2017-11-05T03:47:24.690Z,7.79
2017-11-05T03:48:24.733Z,7.78
2017-11-05T03:50:18.055Z,7.67
2017-11-05T03:51:18.125Z,7.71
2017-11-05T03:53:11.439Z,7.74
2017-11-05T03:54:11.486Z,7.69
2017-11-05T03:56:04.863Z,7.62
2017-11-05T03:57:04.881Z,7.67
2017-11-05T03:58:58.310Z,7.69
2017-11-05T03:59:58.307Z,7.59
2017-11-05T04:01:52.701Z,7.60
2017-11-05T04:02:52.663Z,7.66
2017-11-05T04:04:46.025Z,7.78
2017-11-05T04:05:46.046Z,7.66
2017-11-05T04:07:39.407Z,7.69
2017-11-05T04:08:39.454Z,7.71
2017-11-05T04:10:32.853Z,7.66
2017-11-05T04:11:32.889Z,7.62
2017-11-05T04:13:26.278Z,7.69
2017-11-05T04:14:26.237Z,7.69
2017-11-05T04:16:19.653Z,7.67
2017-11-05T04:17:19.630Z,7.66
2017-11-05T04:19:13.039Z,7.69
2017-11-05T04:20:13.142Z,7.59
2017-11-05T04:22:07.467Z,7.59
2017-11-05T04:23:07.453Z,7.55
2017-11-05T04:25:01.872Z,7.59
2017-11-05T04:26:01.799Z,7.50
2017-11-05T04:27:55.216Z,7.55
2017-11-05T04:28:55.194Z,7.45
2017-11-05T04:30:48.622Z,7.49
2017-11-05T04:31:48.611Z,7.58
2017-11-05T04:33:41.989Z,7.60
2017-11-05T04:34:41.982Z,7.56
2017-11-05T04:36:35.422Z,7.63
2017-11-05T04:37:35.405Z,7.71
2017-11-05T04:39:28.830Z,7.62
2017-11-05T04:40:28.743Z,7.59
2017-11-05T04:42:22.135Z,7.56
2017-11-05T04:43:22.223Z,7.59
2017-11-05T04:45:16.567Z,7.62
2017-11-05T04:46:16.547Z,7.78
2017-11-05T04:48:09.980Z,7.78
2017-11-05T04:49:09.946Z,7.87
2017-11-05T04:51:03.388Z,7.90
2017-11-05T04:52:03.310Z,7.84
2017-11-05T04:53:56.704Z,7.92
2017-11-05T04:54:56.756Z,7.87
2017-11-05T04:56:50.123Z,7.96
2017-11-05T04:57:50.115Z,7.94
2017-11-05T04:59:44.468Z,7.90
2017-11-05T05:00:44.510Z,7.94
2017-11-05T05:02:37.902Z,8.04
2017-11-05T05:03:37.880Z,7.96
2017-11-05T05:05:31.317Z,8.08
2017-11-05T05:06:31.293Z,8.03
2017-11-05T05:08:25.639Z,8.03
2017-11-05T05:09:25.685Z,8.18
2017-11-05T05:11:19.119Z,8.25
2017-11-05T05:12:19.131Z,8.30
2017-11-05T05:14:12.521Z,8.40
2017-11-05T05:15:12.467Z,8.29
2017-11-05T05:17:06.857Z,8.33
2017-11-05T05:18:06.825Z,8.37
2017-11-05T05:20:00.212Z,8.39
2017-11-05T05:21:00.234Z,8.48
2017-11-05T05:22:53.611Z,8.53
2017-11-05T05:23:53.685Z,8.50
2017-11-05T05:25:47.106Z,8.62
2017-11-05T05:26:47.020Z,8.53
2017-11-05T05:28:40.475Z,8.55
2017-11-05T05:29:40.452Z,8.55
2017-11-05T05:31:33.826Z,8.57
2017-11-05T05:32:33.824Z,8.48
2017-11-05T05:34:27.247Z,8.58
2017-11-05T05:35:27.215Z,8.60
2017-11-05T05:37:20.562Z,8.60
2017-11-05T05:38:20.593Z,8.60
2017-11-05T05:40:14.017Z,8.55
2017-11-05T05:41:13.986Z,8.51
2017-11-05T05:43:07.403Z,8.51
2017-11-05T05:44:07.376Z,8.48
2017-11-05T05:46:01.801Z,8.53
2017-11-05T05:47:01.788Z,8.47
2017-11-05T05:48:55.227Z,8.50
2017-11-05T05:49:55.260Z,8.53
2017-11-05T05:51:49.516Z,8.47
2017-11-05T05:52:49.608Z,8.53
2017-11-05T05:54:42.979Z,8.55
2017-11-05T05:55:43.009Z,8.60
2017-11-05T05:57:36.384Z,8.53
2017-11-05T05:58:36.421Z,8.58
2017-11-05T06:00:29.724Z,8.54
2017-11-05T06:01:29.811Z,8.54
2017-11-05T06:03:23.149Z,8.54
2017-11-05T06:04:23.177Z,8.57
2017-11-05T06:06:16.570Z,8.58
2017-11-05T06:07:16.638Z,8.53
2017-11-05T06:09:10.936Z,8.58
2017-11-05T06:10:10.974Z,8.53
2017-11-05T06:12:04.357Z,8.58
2017-11-05T06:13:04.348Z,8.62
2017-11-05T06:14:57.737Z,8.51
2017-11-05T06:15:57.733Z,8.58
2017-11-05T06:17:51.160Z,8.63
2017-11-05T06:18:51.125Z,8.63
2017-11-05T06:20:44.511Z,8.65
2017-11-05T06:21:44.602Z,8.63
2017-11-05T06:23:37.992Z,8.65
2017-11-05T06:24:37.936Z,8.65
2017-11-05T06:26:32.341Z,8.68
2017-11-05T06:27:32.333Z,8.66
2017-11-05T06:29:25.737Z,8.68
2017-11-05T06:30:25.761Z,8.63
2017-11-05T06:32:19.193Z,8.71
2017-11-05T06:33:19.110Z,8.71
2017-11-05T06:35:12.515Z,8.81
2017-11-05T06:36:12.571Z,8.90
2017-11-05T06:38:06.080Z,8.79
2017-11-05T06:39:05.904Z,8.79
2017-11-05T06:40:59.333Z,8.84
2017-11-05T06:41:59.337Z,8.78
2017-11-05T06:43:52.740Z,8.84
2017-11-05T06:44:52.731Z,8.99
2017-11-05T06:46:47.148Z,8.86
2017-11-05T06:47:47.128Z,8.94
2017-11-05T06:49:40.543Z,9.02
2017-11-05T06:50:49.127Z,8.96
2017-11-05T06:52:36.014Z,8.94
2017-11-05T06:53:35.892Z,9.06
2017-11-05T06:55:29.333Z,8.99
2017-11-05T06:56:29.356Z,9.06
2017-11-05T06:58:22.777Z,9.04
2017-11-05T06:59:22.763Z,9.20
2017-11-05T07:01:17.134Z,9.10
2017-11-05T07:02:17.189Z,9.05
2017-11-05T07:04:10.589Z,9.20
2017-11-05T07:05:10.579Z,9.20
2017-11-05T07:07:11.604Z,9.18
2017-11-05T07:08:03.992Z,9.32
2017-11-05T07:09:57.343Z,9.30
2017-11-05T07:10:57.440Z,9.38
2017-11-05T07:12:50.780Z,9.39
2017-11-05T07:13:50.810Z,9.34
2017-11-05T07:15:44.130Z,9.48
2017-11-05T07:16:44.157Z,9.61
2017-11-05T07:18:37.576Z,9.71
2017-11-05T07:19:37.563Z,9.66
2017-11-05T07:21:30.963Z,9.67
2017-11-05T07:22:31.043Z,9.76
2017-11-05T07:24:25.361Z,9.76
2017-11-05T07:25:25.367Z,9.75
2017-11-05T07:27:18.747Z,9.78
2017-11-05T07:28:18.801Z,9.83
2017-11-05T07:30:12.151Z,9.82
2017-11-05T07:31:12.254Z,9.76
2017-11-05T07:33:05.646Z,9.91
2017-11-05T07:34:05.556Z,9.88
2017-11-05T07:35:58.902Z,9.86
2017-11-05T07:36:58.978Z,9.86
2017-11-05T07:38:53.360Z,9.86
2017-11-05T07:39:53.386Z,9.94
2017-11-05T07:41:46.790Z,9.89
2017-11-05T07:42:46.772Z,9.99
2017-11-05T07:44:40.214Z,9.94
2017-11-05T07:45:40.227Z,9.96
2017-11-05T07:47:33.555Z,10.00
2017-11-05T07:48:33.551Z,10.04
2017-11-05T07:50:27.947Z,10.06
2017-11-05T07:51:28.090Z,10.17
2017-11-05T07:53:21.392Z,10.12
2017-11-05T07:54:21.447Z,10.21
2017-11-05T07:56:14.749Z,10.26
2017-11-05T07:57:14.747Z,10.30
2017-11-05T07:59:08.177Z,10.34
2017-11-05T08:00:08.149Z,10.32
2017-11-05T08:02:01.551Z,10.22
2017-11-05T08:03:01.539Z,10.26
2017-11-05T08:04:54.962Z,10.25
2017-11-05T08:05:54.934Z,10.30
2017-11-05T08:07:48.325Z,10.30
2017-11-05T08:08:48.374Z,10.30
2017-11-05T08:10:41.759Z,10.30
2017-11-05T08:11:41.736Z,10.32
2017-11-05T08:13:36.161Z,10.34
2017-11-05T08:14:36.190Z,10.39
2017-11-05T08:16:29.608Z,10.40
2017-11-05T08:17:29.630Z,10.36
2017-11-05T08:19:22.934Z,10.43
2017-11-05T08:20:22.925Z,10.33
2017-11-05T08:22:16.359Z,10.34
2017-11-05T08:23:17.344Z,10.36
2017-11-05T08:25:10.803Z,10.44
2017-11-05T08:26:10.770Z,10.36
2017-11-05T08:28:04.114Z,10.42
2017-11-05T08:29:04.189Z,10.39
2017-11-05T08:30:57.585Z,10.55
2017-11-05T08:31:57.579Z,10.53
2017-11-05T08:33:50.925Z,10.53
2017-11-05T08:34:50.952Z,10.55
2017-11-05T08:36:45.422Z,10.62
2017-11-05T08:37:45.350Z,10.55
2017-11-05T08:39:38.828Z,10.63
2017-11-05T08:40:38.769Z,10.65
2017-11-05T08:42:32.133Z,10.70
2017-11-05T08:43:32.145Z,10.76
2017-11-05T08:45:25.540Z,10.81
2017-11-05T08:46:25.591Z,10.74
2017-11-05T08:48:18.945Z,10.77
2017-11-05T08:49:18.950Z,10.81
2017-11-05T08:51:12.398Z,10.81
2017-11-05T08:52:12.414Z,10.86
2017-11-05T08:54:05.788Z,10.83
2017-11-05T08:55:05.805Z,10.83
2017-11-05T08:57:00.196Z,10.88
2017-11-05T08:58:00.191Z,10.88
2017-11-05T08:59:53.580Z,10.83
2017-11-05T09:00:53.593Z,10.86
2017-11-05T09:02:47.008Z,10.89
2017-11-05T09:03:47.077Z,10.84
2017-11-05T09:05:41.470Z,10.84
2017-11-05T09:06:41.385Z,10.80
2017-11-05T09:08:34.753Z,10.96
2017-11-05T09:09:34.806Z,10.99
2017-11-05T09:11:28.142Z,10.95
2017-11-05T09:12:28.140Z,11.03
2017-11-05T09:14:21.564Z,11.03
2017-11-05T09:15:21.585Z,11.03
2017-11-05T09:17:14.993Z,11.06
2017-11-05T09:18:14.995Z,11.03
2017-11-05T09:20:08.343Z,11.06
2017-11-05T09:21:08.347Z,11.03
2017-11-05T09:23:01.778Z,10.98
2017-11-05T09:24:01.781Z,10.99
2017-11-05T09:25:55.171Z,11.02
2017-11-05T09:26:55.146Z,10.92
2017-11-05T09:28:48.512Z,11.03
2017-11-05T09:29:48.635Z,10.91
2017-11-05T09:31:41.975Z,10.92
2017-11-05T09:32:41.991Z,10.94
2017-11-05T09:34:35.401Z,10.83
2017-11-05T09:35:35.406Z,10.86
2017-11-05T09:37:29.839Z,10.81
2017-11-05T09:38:29.815Z,10.86
2017-11-05T09:40:23.191Z,10.92
2017-11-05T09:41:23.267Z,10.95
2017-11-05T09:43:18.561Z,10.95
2017-11-05T09:44:18.578Z,10.99
2017-11-05T09:46:12.031Z,10.94
2017-11-05T09:47:11.944Z,10.94
2017-11-05T09:49:06.666Z,10.94
2017-11-05T09:50:05.380Z,10.98
2017-11-05T09:51:59.081Z,10.96
2017-11-05T09:52:58.847Z,10.99
2017-11-05T09:54:52.274Z,10.99
2017-11-05T09:55:52.254Z,10.99
2017-11-05T09:57:45.706Z,10.96
2017-11-05T09:58:45.606Z,10.96
2017-11-05T10:00:39.027Z,11.01
2017-11-05T10:01:39.049Z,10.96
2017-11-05T10:03:32.474Z,10.96
2017-11-05T10:04:32.494Z,10.92
2017-11-05T10:06:26.819Z,10.99
2017-11-05T10:07:26.830Z,10.83
2017-11-05T10:09:20.252Z,11.02
2017-11-05T10:10:20.235Z,11.01
2017-11-05T10:12:13.685Z,10.99
2017-11-05T10:13:13.658Z,10.99
2017-11-05T10:15:08.005Z,10.98
2017-11-05T10:16:08.066Z,11.06
2017-11-05T10:18:02.792Z,11.06
2017-11-05T10:19:02.763Z,11.14
2017-11-05T10:20:58.043Z,11.14
2017-11-05T10:21:57.940Z,11.20
2017-11-05T10:23:51.638Z,11.20
2017-11-05T10:24:51.593Z,11.21
2017-11-05T10:26:44.620Z,11.17
2017-11-05T10:27:44.685Z,11.21
2017-11-05T10:29:39.138Z,11.17
2017-11-05T10:30:39.061Z,11.27
2017-11-05T10:32:32.506Z,11.31
2017-11-05T10:33:32.484Z,11.29
2017-11-05T10:35:25.928Z,11.36
2017-11-05T10:36:25.858Z,11.39
2017-11-05T10:38:19.284Z,11.36
2017-11-05T10:39:19.282Z,11.39
2017-11-05T10:41:12.665Z,11.34
2017-11-05T10:42:12.635Z,11.41
2017-11-05T10:44:06.020Z,11.36
2017-11-05T10:45:06.072Z,11.38
2017-11-05T10:46:59.440Z,11.31
2017-11-05T10:47:59.540Z,11.34
2017-11-05T10:49:52.916Z,11.27
2017-11-05T10:50:52.905Z,11.16
2017-11-05T10:52:46.302Z,11.20
2017-11-05T10:53:46.384Z,11.20
2017-11-05T10:55:40.761Z,11.09
2017-11-05T10:56:40.733Z,11.11
2017-11-05T10:58:34.182Z,11.16
2017-11-05T10:59:34.093Z,11.13
2017-11-05T11:01:27.430Z,11.13
2017-11-05T11:02:27.504Z,11.16
2017-11-05T11:04:20.827Z,11.24
2017-11-05T11:05:20.888Z,11.19
2017-11-05T11:07:14.438Z,11.20
2017-11-05T11:08:14.304Z,11.21
2017-11-05T11:10:08.659Z,11.16
2017-11-05T11:11:08.692Z,11.20
2017-11-05T11:13:02.100Z,11.19
2017-11-05T11:14:02.144Z,11.21
2017-11-05T11:15:55.534Z,11.11
2017-11-05T11:16:55.510Z,11.16
2017-11-05T11:18:48.926Z,11.24
2017-11-05T11:19:48.910Z,11.24
2017-11-05T11:21:42.346Z,11.13
2017-11-05T11:22:42.725Z,11.25
2017-11-05T11:24:37.562Z,11.11
2017-11-05T11:25:36.973Z,11.13
2017-11-05T11:27:30.390Z,11.14
2017-11-05T11:28:30.111Z,11.13
2017-11-05T11:30:24.540Z,11.21
2017-11-05T11:31:24.175Z,11.07
2017-11-05T11:33:17.109Z,11.07
2017-11-05T11:34:17.161Z,11.06
2017-11-05T11:36:12.847Z,11.06
2017-11-05T11:37:12.781Z,11.11
2017-11-05T11:39:07.316Z,11.01
2017-11-05T11:40:07.223Z,11.01
2017-11-05T11:42:01.182Z,11.02
2017-11-05T11:43:01.217Z,10.99
2017-11-05T11:44:55.908Z,10.99
2017-11-05T11:45:55.561Z,10.83
2017-11-05T11:47:50.008Z,10.88
2017-11-05T11:48:50.006Z,10.78
2017-11-05T11:50:43.519Z,10.70
2017-11-05T11:51:43.404Z,10.73
2017-11-05T11:53:36.886Z,10.59
2017-11-05T11:54:36.806Z,10.58
2017-11-05T11:56:30.223Z,10.39
2017-11-05T11:57:30.200Z,10.30
2017-11-05T11:59:23.614Z,10.42
2017-11-05T12:00:23.606Z,10.34
2017-11-05T12:02:18.225Z,10.25
2017-11-05T12:03:18.403Z,10.14
2017-11-05T12:05:11.749Z,10.06
2017-11-05T12:06:11.394Z,10.06
2017-11-05T12:08:06.053Z,9.99
2017-11-05T12:09:06.013Z,10.06
2017-11-05T12:10:59.266Z,9.93
2017-11-05T12:12:00.012Z,9.83
2017-11-05T12:13:52.773Z,9.83
2017-11-05T12:14:52.672Z,9.83
2017-11-05T12:16:47.059Z,9.71
2017-11-05T12:17:47.113Z,9.70
2017-11-05T12:19:40.493Z,9.50
2017-11-05T12:20:40.467Z,9.50
2017-11-05T12:22:33.884Z,9.53
2017-11-05T12:23:33.882Z,9.49
2017-11-05T12:25:27.258Z,9.38
2017-11-05T12:26:27.263Z,9.38
2017-11-05T12:28:20.820Z,9.13
2017-11-05T12:29:20.610Z,9.20
2017-11-05T12:31:14.123Z,8.96
2017-11-05T12:32:14.086Z,9.01
2017-11-05T12:34:07.356Z,8.87
2017-11-05T12:35:07.444Z,8.81
2017-11-05T12:37:00.821Z,8.84
2017-11-05T12:38:00.834Z,8.73
2017-11-05T12:39:54.204Z,8.73
2017-11-05T12:40:54.215Z,8.72
2017-11-05T12:42:47.643Z,8.58
2017-11-05T12:43:47.600Z,8.65
2017-11-05T12:45:41.982Z,8.62
2017-11-05T12:46:42.010Z,8.58
2017-11-05T12:48:35.382Z,8.51
2017-11-05T12:49:35.345Z,8.51
2017-11-05T12:51:28.741Z,8.39
2017-11-05T12:52:28.889Z,8.39
2017-11-05T12:54:22.236Z,8.35
2017-11-05T12:55:22.232Z,8.33
2017-11-05T12:57:15.608Z,8.33
2017-11-05T12:58:15.608Z,8.37
2017-11-05T13:00:08.962Z,8.28
2017-11-05T13:01:08.987Z,8.26
2017-11-05T13:03:03.359Z,8.30
2017-11-05T13:04:03.351Z,8.33
2017-11-05T13:05:57.812Z,8.32
2017-11-05T13:06:57.812Z,8.29
2017-11-05T13:08:51.175Z,8.33
2017-11-05T13:09:51.192Z,8.37
2017-11-05T13:11:44.614Z,8.42
2017-11-05T13:12:44.588Z,8.39
2017-11-05T13:14:38.109Z,8.35
2017-11-05T13:15:38.036Z,8.32
2017-11-05T13:17:31.448Z,8.30
2017-11-05T13:18:31.374Z,8.22
2017-11-05T13:20:25.833Z,8.15
2017-11-05T13:21:25.851Z,8.11
2017-11-05T13:23:19.150Z,8.08
2017-11-05T13:24:19.185Z,8.04
2017-11-05T13:26:12.587Z,8.04
2017-11-05T13:27:12.553Z,8.04
2017-11-05T13:29:06.068Z,8.03
2017-11-05T13:30:05.959Z,8.07
2017-11-05T13:32:00.376Z,8.14
2017-11-05T13:33:00.398Z,8.14
2017-11-05T13:34:54.822Z,8.00
2017-11-05T13:35:54.034Z,8.10
2017-11-05T13:37:49.579Z,8.08
2017-11-05T13:38:48.094Z,8.02
2017-11-05T13:40:41.619Z,7.99
2017-11-05T13:41:41.622Z,8.04
2017-11-05T13:43:34.886Z,7.97
2017-11-05T13:44:35.034Z,7.97
2017-11-05T13:46:28.402Z,7.92
2017-11-05T13:47:28.724Z,7.93
2017-11-05T13:49:22.447Z,7.90
2017-11-05T13:50:24.214Z,7.63
2017-11-05T13:52:15.853Z,7.82
2017-11-05T13:53:15.901Z,7.59
2017-11-05T13:55:09.289Z,7.84
2017-11-05T13:56:09.268Z,7.75
2017-11-05T13:58:02.663Z,7.79
2017-11-05T13:59:02.604Z,7.78
2017-11-05T14:00:57.612Z,7.74
2017-11-05T14:01:56.082Z,7.79
2017-11-05T14:03:49.378Z,7.75
2017-11-05T14:04:49.583Z,7.79
2017-11-05T14:06:42.955Z,7.85
2017-11-05T14:07:42.936Z,7.87
2017-11-05T14:09:37.253Z,7.85
2017-11-05T14:10:37.355Z,7.84
2017-11-05T14:12:41.871Z,7.79
2017-11-05T14:13:31.934Z,7.78
2017-11-05T14:15:34.845Z,7.81
2017-11-05T14:16:34.677Z,7.82
2017-11-05T14:18:20.512Z,7.85
2017-11-05T14:19:21.373Z,7.82
2017-11-05T14:21:24.926Z,7.77
2017-11-05T14:24:17.853Z,7.77
2017-11-05T14:25:18.950Z,7.81
2017-11-05T14:27:12.293Z,7.72
2017-11-05T14:28:03.657Z,7.79
2017-11-05T14:30:04.667Z,7.75
2017-11-05T14:30:57.016Z,7.66
2017-11-05T14:32:51.475Z,7.81
2017-11-05T14:34:00.060Z,7.77
2017-11-05T14:35:53.469Z,7.77
2017-11-05T14:36:53.420Z,7.66
2017-11-05T14:38:38.291Z,7.85
2017-11-05T14:39:38.377Z,7.74
2017-11-05T14:41:40.469Z,7.78
2017-11-05T14:42:39.296Z,7.81
2017-11-05T14:44:32.690Z,7.67
2017-11-05T14:45:25.096Z,7.74
2017-11-05T14:47:18.503Z,7.69
2017-11-05T14:48:18.472Z,7.69
2017-11-05T14:50:22.254Z,7.78
2017-11-05T14:51:12.312Z,7.78
2017-11-05T14:53:07.191Z,7.75
2017-11-05T14:54:07.068Z,7.87
2017-11-05T14:56:10.522Z,7.85
2017-11-05T14:57:09.434Z,7.87
2017-11-05T14:58:55.331Z,7.87
2017-11-05T14:59:55.139Z,7.84
2017-11-05T15:01:48.768Z,7.85
2017-11-05T15:02:48.562Z,7.75
2017-11-05T15:04:42.072Z,7.82
2017-11-05T15:05:41.972Z,7.82
2017-11-05T15:07:35.430Z,7.87
2017-11-05T15:08:35.385Z,7.78
2017-11-05T15:10:28.989Z,7.79
2017-11-05T15:11:28.865Z,7.89
2017-11-05T15:13:23.148Z,7.82
2017-11-05T15:14:30.848Z,7.79
2017-11-05T15:16:16.546Z,7.82
2017-11-05T15:17:16.579Z,7.92
2017-11-05T15:19:10.045Z,7.87
2017-11-05T15:20:10.000Z,7.89
2017-11-05T15:22:03.468Z,7.79
2017-11-05T15:23:03.361Z,7.85
2017-11-05T15:24:57.808Z,7.87
2017-11-05T15:25:57.862Z,7.89
2017-11-05T15:27:52.254Z,7.84
2017-11-05T15:28:52.301Z,7.78
2017-11-05T15:30:45.593Z,7.75
2017-11-05T15:31:45.569Z,7.90
2017-11-05T15:33:38.913Z,7.78
2017-11-05T15:34:39.008Z,7.85
2017-11-05T15:36:32.498Z,7.75
2017-11-05T15:37:32.594Z,7.82
2017-11-05T15:39:25.899Z,7.78
2017-11-05T15:40:26.157Z,7.82
2017-11-05T15:42:19.456Z,7.69
2017-11-05T15:43:19.219Z,7.74
2017-11-05T15:45:13.802Z,7.78
2017-11-05T15:46:21.204Z,7.63
2017-11-05T15:48:07.030Z,7.66
2017-11-05T15:49:07.026Z,7.67
2017-11-05T15:51:01.423Z,7.78
2017-11-05T15:52:09.974Z,7.78
2017-11-05T15:54:03.459Z,7.58
2017-11-05T15:54:55.891Z,7.67
2017-11-05T15:56:58.897Z,7.69
2017-11-05T15:57:50.233Z,7.78
2017-11-05T15:59:52.319Z,7.77
2017-11-05T16:00:51.345Z,7.79
2017-11-05T16:02:37.006Z,7.75
2017-11-05T16:03:37.015Z,7.67
2017-11-05T16:05:40.114Z,7.71
2017-11-05T16:06:31.619Z,7.60
2017-11-05T16:08:24.955Z,7.56
2017-11-05T16:09:24.877Z,7.58
2017-11-05T16:11:18.248Z,7.59
2017-11-05T16:12:18.402Z,7.44
2017-11-05T16:14:12.773Z,7.45
2017-11-05T16:15:12.839Z,7.47
2017-11-05T16:17:15.796Z,7.40
2017-11-05T16:18:16.827Z,7.42
2017-11-05T16:20:08.181Z,7.45
2017-11-05T16:21:10.086Z,7.42
2017-11-05T16:23:01.593Z,7.40
2017-11-05T16:24:02.379Z,7.45
2017-11-05T16:25:55.872Z,7.42
2017-11-05T16:26:47.339Z,7.35
2017-11-05T16:28:48.378Z,7.41
2017-11-05T16:29:40.681Z,7.41
2017-11-05T16:31:34.042Z,7.44
2017-11-05T16:32:42.760Z,7.35
2017-11-05T16:34:36.192Z,7.31
2017-11-05T16:35:35.101Z,7.35
2017-11-05T16:37:28.949Z,7.35
2017-11-05T16:38:21.021Z,7.32
2017-11-05T16:40:22.505Z,7.42
2017-11-05T16:41:16.131Z,7.34
2017-11-05T16:43:18.361Z,7.38
2017-11-05T16:44:09.667Z,7.24
2017-11-05T16:46:04.048Z,7.26
2017-11-05T16:47:11.640Z,7.22
2017-11-05T16:49:06.304Z,7.23
2017-11-05T16:50:06.351Z,7.31
2017-11-05T16:51:52.650Z,7.29
2017-11-05T16:54:25.554Z,7.20
2017-11-05T16:55:24.562Z,7.19
2017-11-05T16:57:11.267Z,7.20
2017-11-05T16:58:11.305Z,7.17
2017-11-05T17:00:03.995Z,7.20
2017-11-05T17:01:03.991Z,7.13
2017-11-05T17:02:58.459Z,7.09
2017-11-05T17:03:58.473Z,7.19
2017-11-05T17:05:52.790Z,7.09
2017-11-05T17:06:52.890Z,7.17
2017-11-05T17:08:46.450Z,7.17
2017-11-05T17:09:46.327Z,7.09
2017-11-05T17:11:39.584Z,7.07
2017-11-05T17:12:39.579Z,7.13
2017-11-05T17:14:33.044Z,7.19
2017-11-05T17:15:33.016Z,7.09
2017-11-05T17:17:26.407Z,7.07
2017-11-05T17:18:26.507Z,7.09
2017-11-05T17:20:20.067Z,7.08
2017-11-05T17:21:19.740Z,7.07
2017-11-05T17:23:13.157Z,7.09
2017-11-05T17:24:13.154Z,7.01
2017-11-05T17:26:06.505Z,7.09
2017-11-05T17:27:06.520Z,7.04
2017-11-05T17:28:59.978Z,6.99
2017-11-05T17:30:00.046Z,7.04
2017-11-05T17:31:53.325Z,6.99
2017-11-05T17:32:53.396Z,6.98
2017-11-05T17:34:46.878Z,6.98
2017-11-05T17:35:46.795Z,6.98
2017-11-05T17:37:40.262Z,6.91
2017-11-05T17:38:40.149Z,6.99
2017-11-05T17:40:33.608Z,6.97
2017-11-05T17:41:33.581Z,6.95
2017-11-05T17:43:27.080Z,6.86
2017-11-05T17:44:27.005Z,6.86
2017-11-05T17:46:20.318Z,6.84
2017-11-05T17:47:20.344Z,6.83
2017-11-05T17:49:13.704Z,6.91
2017-11-05T17:50:13.721Z,6.87
2017-11-05T17:52:07.127Z,6.81
2017-11-05T17:53:07.450Z,6.84
2017-11-05T17:55:00.560Z,6.83
2017-11-05T17:56:00.641Z,6.84
2017-11-05T17:57:54.910Z,6.89
2017-11-05T17:58:54.960Z,6.86
2017-11-05T18:00:48.505Z,6.90
2017-11-05T18:01:48.378Z,6.84
2017-11-05T18:03:41.860Z,6.89
2017-11-05T18:04:41.697Z,6.84
2017-11-05T18:06:35.247Z,6.81
2017-11-05T18:07:39.384Z,6.86
2017-11-05T18:09:28.535Z,6.77
2017-11-05T18:10:28.779Z,6.87
2017-11-05T18:12:21.941Z,6.86
2017-11-05T18:13:22.311Z,6.87
2017-11-05T18:15:17.031Z,6.80
2017-11-05T18:16:15.413Z,6.77
2017-11-05T18:18:08.783Z,6.79
2017-11-05T18:19:08.787Z,6.66
2017-11-05T18:21:02.213Z,6.65
2017-11-05T18:22:02.216Z,6.69
2017-11-05T18:23:56.049Z,6.65
2017-11-05T18:24:55.620Z,6.58
2017-11-05T18:26:49.023Z,6.62
2017-11-05T18:27:48.998Z,6.53
2017-11-05T18:29:43.421Z,6.46
2017-11-05T18:30:43.414Z,6.46
2017-11-05T18:32:36.802Z,6.38
2017-11-05T18:33:36.832Z,6.33
2017-11-05T18:35:30.205Z,6.29
2017-11-05T18:36:30.186Z,6.30
2017-11-05T18:38:24.582Z,6.29
2017-11-05T18:39:24.563Z,6.25
2017-11-05T18:41:17.995Z,6.30
2017-11-05T18:42:17.972Z,6.29
2017-11-05T18:44:11.397Z,6.28
2017-11-05T18:45:11.463Z,6.26
2017-11-05T18:47:04.801Z,6.35
2017-11-05T18:48:04.842Z,6.28
2017-11-05T18:49:58.240Z,6.29
2017-11-05T18:50:58.178Z,6.30
2017-11-05T18:52:51.599Z,6.29
2017-11-05T18:53:51.548Z,6.30
2017-11-05T18:55:45.025Z,6.32
2017-11-05T18:56:44.972Z,6.32
2017-11-05T18:58:38.346Z,6.28
2017-11-05T18:59:38.390Z,6.26
2017-11-05T19:01:32.760Z,6.40
2017-11-05T19:02:32.785Z,6.29
2017-11-05T19:04:27.267Z,6.35
2017-11-05T19:05:27.196Z,6.30
2017-11-05T19:07:20.639Z,6.32
2017-11-05T19:08:20.549Z,6.25
2017-11-05T19:10:13.957Z,6.32